sensor_id;sensor_type;location;lat;lon;timestamp;P1;durP1;ratioP1;P2;durP2;ratioP2
3911;SDS011;1971;51.778;10.330;2024-03-06T00:00:45;17.40;;;15.70;;
3911;SDS011;1971;51.778;10.330;2024-03-06T00:03:15;17.00;;;14.80;;
3911;SDS011;1971;51.778;10.330;2024-03-06T00:05:47;15.80;;;14.43;;
3911;SDS011;1971;51.778;10.330;2024-03-06T00:08:17;17.63;;;15.10;;
3911;SDS011;1971;51.778;10.330;2024-03-06T00:10:50;16.00;;;14.50;;
3911;SDS011;1971;51.778;10.330;2024-03-06T00:13:20;16.87;;;15.37;;
3911;SDS011;1971;51.778;10.330;2024-03-06T00:15:50;15.03;;;13.70;;
3911;SDS011;1971;51.778;10.330;2024-03-06T00:18:21;19.33;;;14.50;;
3911;SDS011;1971;51.778;10.330;2024-03-06T00:20:51;15.70;;;14.30;;
3911;SDS011;1971;51.778;10.330;2024-03-06T00:23:21;15.93;;;14.37;;
3911;SDS011;1971;51.778;10.330;2024-03-06T00:25:54;16.87;;;15.27;;
3911;SDS011;1971;51.778;10.330;2024-03-06T00:28:24;17.20;;;15.60;;
3911;SDS011;1971;51.778;10.330;2024-03-06T00:30:55;16.80;;;15.30;;
3911;SDS011;1971;51.778;10.330;2024-03-06T00:33:25;14.80;;;13.40;;
3911;SDS011;1971;51.778;10.330;2024-03-06T00:35:56;15.90;;;14.13;;
3911;SDS011;1971;51.778;10.330;2024-03-06T00:38:26;15.57;;;14.20;;
3911;SDS011;1971;51.778;10.330;2024-03-06T00:40:59;14.30;;;13.00;;
3911;SDS011;1971;51.778;10.330;2024-03-06T00:43:30;16.53;;;15.13;;
3911;SDS011;1971;51.778;10.330;2024-03-06T00:46:00;15.67;;;14.27;;
3911;SDS011;1971;51.778;10.330;2024-03-06T00:48:30;15.47;;;14.07;;
3911;SDS011;1971;51.778;10.330;2024-03-06T00:51:03;15.80;;;14.30;;
3911;SDS011;1971;51.778;10.330;2024-03-06T00:53:34;16.07;;;14.50;;
3911;SDS011;1971;51.778;10.330;2024-03-06T00:56:08;17.47;;;15.67;;
3911;SDS011;1971;51.778;10.330;2024-03-06T00:58:38;15.67;;;14.23;;
3911;SDS011;1971;51.778;10.330;2024-03-06T01:01:09;14.10;;;12.90;;
3911;SDS011;1971;51.778;10.330;2024-03-06T01:03:39;15.80;;;14.50;;
3911;SDS011;1971;51.778;10.330;2024-03-06T01:06:09;15.50;;;14.00;;
3911;SDS011;1971;51.778;10.330;2024-03-06T01:08:39;15.97;;;14.47;;
3911;SDS011;1971;51.778;10.330;2024-03-06T01:11:11;16.10;;;14.70;;
3911;SDS011;1971;51.778;10.330;2024-03-06T01:13:43;16.30;;;14.77;;
3911;SDS011;1971;51.778;10.330;2024-03-06T01:16:13;16.00;;;14.50;;
3911;SDS011;1971;51.778;10.330;2024-03-06T01:18:44;16.90;;;15.40;;
3911;SDS011;1971;51.778;10.330;2024-03-06T01:21:14;17.80;;;16.00;;
3911;SDS011;1971;51.778;10.330;2024-03-06T01:23:44;16.03;;;14.30;;
3911;SDS011;1971;51.778;10.330;2024-03-06T01:26:17;18.03;;;16.13;;
3911;SDS011;1971;51.778;10.330;2024-03-06T01:28:47;14.57;;;13.23;;
3911;SDS011;1971;51.778;10.330;2024-03-06T01:31:17;16.97;;;14.90;;
3911;SDS011;1971;51.778;10.330;2024-03-06T01:33:47;17.53;;;15.70;;
3911;SDS011;1971;51.778;10.330;2024-03-06T01:36:18;15.77;;;14.33;;
3911;SDS011;1971;51.778;10.330;2024-03-06T01:38:48;16.13;;;14.73;;
3911;SDS011;1971;51.778;10.330;2024-03-06T01:41:21;17.50;;;15.80;;
3911;SDS011;1971;51.778;10.330;2024-03-06T01:43:51;15.93;;;14.43;;
3911;SDS011;1971;51.778;10.330;2024-03-06T01:46:21;15.63;;;14.23;;
3911;SDS011;1971;51.778;10.330;2024-03-06T01:48:51;16.37;;;14.87;;
3911;SDS011;1971;51.778;10.330;2024-03-06T01:51:22;17.87;;;15.73;;
3911;SDS011;1971;51.778;10.330;2024-03-06T01:53:53;18.10;;;16.50;;
3911;SDS011;1971;51.778;10.330;2024-03-06T01:56:26;17.77;;;16.10;;
3911;SDS011;1971;51.778;10.330;2024-03-06T01:58:57;16.77;;;15.07;;
3911;SDS011;1971;51.778;10.330;2024-03-06T02:01:29;15.37;;;14.07;;
3911;SDS011;1971;51.778;10.330;2024-03-06T02:04:00;17.20;;;15.70;;
3911;SDS011;1971;51.778;10.330;2024-03-06T02:06:31;18.43;;;16.73;;
3911;SDS011;1971;51.778;10.330;2024-03-06T02:09:01;16.23;;;14.70;;
3911;SDS011;1971;51.778;10.330;2024-03-06T02:11:36;18.30;;;16.57;;
3911;SDS011;1971;51.778;10.330;2024-03-06T02:14:06;18.70;;;16.90;;
3911;SDS011;1971;51.778;10.330;2024-03-06T02:16:36;17.10;;;15.60;;
3911;SDS011;1971;51.778;10.330;2024-03-06T02:19:07;17.37;;;15.70;;
3911;SDS011;1971;51.778;10.330;2024-03-06T02:21:40;16.27;;;14.87;;
3911;SDS011;1971;51.778;10.330;2024-03-06T02:24:10;17.33;;;15.83;;
3911;SDS011;1971;51.778;10.330;2024-03-06T02:26:41;18.07;;;16.37;;
3911;SDS011;1971;51.778;10.330;2024-03-06T02:29:11;17.03;;;15.50;;
3911;SDS011;1971;51.778;10.330;2024-03-06T02:31:42;18.30;;;16.57;;
3911;SDS011;1971;51.778;10.330;2024-03-06T02:34:12;17.70;;;15.90;;
3911;SDS011;1971;51.778;10.330;2024-03-06T02:36:45;17.47;;;15.87;;
3911;SDS011;1971;51.778;10.330;2024-03-06T02:39:15;16.63;;;14.93;;
3911;SDS011;1971;51.778;10.330;2024-03-06T02:41:46;15.53;;;14.20;;
3911;SDS011;1971;51.778;10.330;2024-03-06T02:44:16;17.67;;;16.17;;
3911;SDS011;1971;51.778;10.330;2024-03-06T02:46:47;19.00;;;15.97;;
3911;SDS011;1971;51.778;10.330;2024-03-06T02:49:18;18.03;;;16.47;;
3911;SDS011;1971;51.778;10.330;2024-03-06T02:51:51;19.30;;;17.60;;
3911;SDS011;1971;51.778;10.330;2024-03-06T02:54:22;16.93;;;15.43;;
3911;SDS011;1971;51.778;10.330;2024-03-06T02:56:52;19.33;;;16.63;;
3911;SDS011;1971;51.778;10.330;2024-03-06T02:59:22;17.57;;;15.93;;
3911;SDS011;1971;51.778;10.330;2024-03-06T03:01:53;17.00;;;15.50;;
3911;SDS011;1971;51.778;10.330;2024-03-06T03:04:23;18.53;;;16.70;;
3911;SDS011;1971;51.778;10.330;2024-03-06T03:06:56;18.77;;;16.90;;
3911;SDS011;1971;51.778;10.330;2024-03-06T03:09:26;19.37;;;17.37;;
3911;SDS011;1971;51.778;10.330;2024-03-06T03:11:56;17.80;;;16.30;;
3911;SDS011;1971;51.778;10.330;2024-03-06T03:14:26;18.60;;;16.80;;
3911;SDS011;1971;51.778;10.330;2024-03-06T03:16:57;19.27;;;17.67;;
3911;SDS011;1971;51.778;10.330;2024-03-06T03:19:27;18.10;;;16.50;;
3911;SDS011;1971;51.778;10.330;2024-03-06T03:22:00;19.80;;;17.90;;
3911;SDS011;1971;51.778;10.330;2024-03-06T03:24:31;18.57;;;16.97;;
3911;SDS011;1971;51.778;10.330;2024-03-06T03:27:01;18.10;;;16.30;;
3911;SDS011;1971;51.778;10.330;2024-03-06T03:29:31;18.13;;;16.47;;
3911;SDS011;1971;51.778;10.330;2024-03-06T03:32:02;19.20;;;17.20;;
3911;SDS011;1971;51.778;10.330;2024-03-06T03:34:32;19.90;;;18.10;;
3911;SDS011;1971;51.778;10.330;2024-03-06T03:37:06;20.20;;;17.80;;
3911;SDS011;1971;51.778;10.330;2024-03-06T03:39:36;18.43;;;16.63;;
3911;SDS011;1971;51.778;10.330;2024-03-06T03:42:06;18.77;;;16.87;;
3911;SDS011;1971;51.778;10.330;2024-03-06T03:44:36;20.07;;;17.97;;
3911;SDS011;1971;51.778;10.330;2024-03-06T03:47:07;20.77;;;18.57;;
3911;SDS011;1971;51.778;10.330;2024-03-06T03:49:39;18.03;;;16.23;;
3911;SDS011;1971;51.778;10.330;2024-03-06T03:52:15;21.83;;;19.93;;
3911;SDS011;1971;51.778;10.330;2024-03-06T03:54:45;18.40;;;16.50;;
3911;SDS011;1971;51.778;10.330;2024-03-06T03:57:16;16.20;;;14.20;;
3911;SDS011;1971;51.778;10.330;2024-03-06T03:59:46;22.93;;;20.70;;
3911;SDS011;1971;51.778;10.330;2024-03-06T04:02:17;23.30;;;20.93;;
3911;SDS011;1971;51.778;10.330;2024-03-06T04:04:48;22.47;;;20.27;;
3911;SDS011;1971;51.778;10.330;2024-03-06T04:07:21;23.37;;;20.87;;
3911;SDS011;1971;51.778;10.330;2024-03-06T04:09:51;23.90;;;20.27;;
3911;SDS011;1971;51.778;10.330;2024-03-06T04:12:21;21.50;;;19.37;;
3911;SDS011;1971;51.778;10.330;2024-03-06T04:14:52;24.43;;;21.83;;
3911;SDS011;1971;51.778;10.330;2024-03-06T04:17:22;22.27;;;20.03;;
3911;SDS011;1971;51.778;10.330;2024-03-06T04:19:52;22.03;;;19.90;;
3911;SDS011;1971;51.778;10.330;2024-03-06T04:22:25;27.13;;;20.53;;
3911;SDS011;1971;51.778;10.330;2024-03-06T04:24:55;27.87;;;25.00;;
3911;SDS011;1971;51.778;10.330;2024-03-06T04:27:26;25.47;;;21.00;;
3911;SDS011;1971;51.778;10.330;2024-03-06T04:29:56;20.73;;;18.73;;
3911;SDS011;1971;51.778;10.330;2024-03-06T04:32:27;21.87;;;19.67;;
3911;SDS011;1971;51.778;10.330;2024-03-06T04:34:57;25.17;;;20.57;;
3911;SDS011;1971;51.778;10.330;2024-03-06T04:37:30;23.73;;;21.33;;
3911;SDS011;1971;51.778;10.330;2024-03-06T04:40:00;21.07;;;19.00;;
3911;SDS011;1971;51.778;10.330;2024-03-06T04:42:34;22.03;;;18.30;;
3911;SDS011;1971;51.778;10.330;2024-03-06T04:45:11;20.73;;;18.73;;
3911;SDS011;1971;51.778;10.330;2024-03-06T04:47:44;21.77;;;19.67;;
3911;SDS011;1971;51.778;10.330;2024-03-06T04:50:14;22.53;;;20.10;;
3911;SDS011;1971;51.778;10.330;2024-03-06T04:52:47;22.00;;;19.70;;
3911;SDS011;1971;51.778;10.330;2024-03-06T04:55:17;23.03;;;20.57;;
3911;SDS011;1971;51.778;10.330;2024-03-06T04:57:49;27.27;;;20.27;;
3911;SDS011;1971;51.778;10.330;2024-03-06T05:00:21;22.30;;;20.20;;
3911;SDS011;1971;51.778;10.330;2024-03-06T05:02:51;23.23;;;20.63;;
3911;SDS011;1971;51.778;10.330;2024-03-06T05:05:37;24.07;;;21.57;;
3911;SDS011;1971;51.778;10.330;2024-03-06T05:08:23;23.20;;;20.27;;
3911;SDS011;1971;51.778;10.330;2024-03-06T05:11:08;22.77;;;20.47;;
3911;SDS011;1971;51.778;10.330;2024-03-06T05:13:52;22.67;;;20.27;;
3911;SDS011;1971;51.778;10.330;2024-03-06T05:16:36;22.87;;;20.53;;
3911;SDS011;1971;51.778;10.330;2024-03-06T05:19:20;23.57;;;20.70;;
3911;SDS011;1971;51.778;10.330;2024-03-06T05:22:10;23.80;;;20.20;;
3911;SDS011;1971;51.778;10.330;2024-03-06T05:24:57;23.53;;;20.10;;
3911;SDS011;1971;51.778;10.330;2024-03-06T05:27:42;21.03;;;19.00;;
3911;SDS011;1971;51.778;10.330;2024-03-06T05:30:26;22.57;;;20.37;;
3911;SDS011;1971;51.778;10.330;2024-03-06T05:33:11;21.57;;;19.37;;
3911;SDS011;1971;51.778;10.330;2024-03-06T05:35:55;21.57;;;19.40;;
3911;SDS011;1971;51.778;10.330;2024-03-06T05:38:39;23.57;;;19.57;;
3911;SDS011;1971;51.778;10.330;2024-03-06T05:41:26;23.30;;;19.83;;
3911;SDS011;1971;51.778;10.330;2024-03-06T05:44:10;22.50;;;20.20;;
3911;SDS011;1971;51.778;10.330;2024-03-06T05:46:54;22.93;;;20.23;;
3911;SDS011;1971;51.778;10.330;2024-03-06T05:49:38;23.63;;;19.63;;
3911;SDS011;1971;51.778;10.330;2024-03-06T05:52:22;19.83;;;17.83;;
3911;SDS011;1971;51.778;10.330;2024-03-06T05:55:06;22.00;;;19.90;;
3911;SDS011;1971;51.778;10.330;2024-03-06T05:57:53;22.03;;;19.80;;
3911;SDS011;1971;51.778;10.330;2024-03-06T06:00:39;23.47;;;21.07;;
3911;SDS011;1971;51.778;10.330;2024-03-06T06:03:10;24.23;;;20.23;;
3911;SDS011;1971;51.778;10.330;2024-03-06T06:08:57;25.80;;;20.83;;
3911;SDS011;1971;51.778;10.330;2024-03-06T06:11:27;21.70;;;19.60;;
3911;SDS011;1971;51.778;10.330;2024-03-06T06:14:00;22.07;;;19.70;;
3911;SDS011;1971;51.778;10.330;2024-03-06T06:16:34;22.17;;;20.07;;
3911;SDS011;1971;51.778;10.330;2024-03-06T06:19:05;22.03;;;19.57;;
3911;SDS011;1971;51.778;10.330;2024-03-06T06:21:36;24.93;;;22.53;;
3911;SDS011;1971;51.778;10.330;2024-03-06T06:24:07;24.27;;;21.80;;
3911;SDS011;1971;51.778;10.330;2024-03-06T06:26:37;24.60;;;22.20;;
3911;SDS011;1971;51.778;10.330;2024-03-06T06:29:11;22.50;;;20.30;;
3911;SDS011;1971;51.778;10.330;2024-03-06T06:31:41;23.57;;;21.17;;
3911;SDS011;1971;51.778;10.330;2024-03-06T06:34:12;25.17;;;22.77;;
3911;SDS011;1971;51.778;10.330;2024-03-06T06:36:44;26.67;;;23.97;;
3911;SDS011;1971;51.778;10.330;2024-03-06T06:39:15;23.90;;;20.43;;
3911;SDS011;1971;51.778;10.330;2024-03-06T06:41:45;23.40;;;21.10;;
3911;SDS011;1971;51.778;10.330;2024-03-06T06:44:18;21.77;;;19.37;;
3911;SDS011;1971;51.778;10.330;2024-03-06T06:46:48;20.77;;;18.70;;
3911;SDS011;1971;51.778;10.330;2024-03-06T06:49:18;22.90;;;20.47;;
3911;SDS011;1971;51.778;10.330;2024-03-06T06:51:49;22.20;;;19.97;;
3911;SDS011;1971;51.778;10.330;2024-03-06T06:54:19;22.57;;;20.37;;
3911;SDS011;1971;51.778;10.330;2024-03-06T06:56:49;22.10;;;19.90;;
3911;SDS011;1971;51.778;10.330;2024-03-06T06:59:23;21.53;;;19.20;;
3911;SDS011;1971;51.778;10.330;2024-03-06T07:01:54;22.60;;;20.33;;
3911;SDS011;1971;51.778;10.330;2024-03-06T07:04:24;20.87;;;18.87;;
3911;SDS011;1971;51.778;10.330;2024-03-06T07:06:54;21.53;;;19.30;;
3911;SDS011;1971;51.778;10.330;2024-03-06T07:09:24;21.20;;;19.30;;
3911;SDS011;1971;51.778;10.330;2024-03-06T07:11:56;21.87;;;19.60;;
3911;SDS011;1971;51.778;10.330;2024-03-06T07:14:28;20.60;;;18.27;;
3911;SDS011;1971;51.778;10.330;2024-03-06T07:16:59;21.00;;;19.00;;
3911;SDS011;1971;51.778;10.330;2024-03-06T07:19:30;19.53;;;17.77;;
3911;SDS011;1971;51.778;10.330;2024-03-06T07:22:00;21.10;;;18.90;;
3911;SDS011;1971;51.778;10.330;2024-03-06T07:24:30;26.13;;;18.20;;
3911;SDS011;1971;51.778;10.330;2024-03-06T07:27:04;19.77;;;17.87;;
3911;SDS011;1971;51.778;10.330;2024-03-06T07:29:38;20.97;;;18.40;;
3911;SDS011;1971;51.778;10.330;2024-03-06T07:32:08;23.43;;;19.53;;
3911;SDS011;1971;51.778;10.330;2024-03-06T07:34:38;26.03;;;19.57;;
3911;SDS011;1971;51.778;10.330;2024-03-06T07:37:08;21.93;;;19.80;;
3911;SDS011;1971;51.778;10.330;2024-03-06T07:39:39;20.90;;;18.90;;
3911;SDS011;1971;51.778;10.330;2024-03-06T07:42:09;22.40;;;20.20;;
3911;SDS011;1971;51.778;10.330;2024-03-06T07:44:42;22.63;;;20.27;;
3911;SDS011;1971;51.778;10.330;2024-03-06T07:47:12;15.90;;;14.57;;
3911;SDS011;1971;51.778;10.330;2024-03-06T07:49:42;22.23;;;19.87;;
3911;SDS011;1971;51.778;10.330;2024-03-06T07:52:13;20.97;;;18.97;;
3911;SDS011;1971;51.778;10.330;2024-03-06T07:54:43;24.10;;;21.60;;
3911;SDS011;1971;51.778;10.330;2024-03-06T07:57:13;22.63;;;20.27;;
3911;SDS011;1971;51.778;10.330;2024-03-06T07:59:47;23.20;;;20.97;;
3911;SDS011;1971;51.778;10.330;2024-03-06T08:02:20;23.27;;;19.13;;
3911;SDS011;1971;51.778;10.330;2024-03-06T08:04:50;21.87;;;19.40;;
3911;SDS011;1971;51.778;10.330;2024-03-06T08:07:20;22.50;;;20.07;;
3911;SDS011;1971;51.778;10.330;2024-03-06T08:09:51;22.87;;;20.47;;
3911;SDS011;1971;51.778;10.330;2024-03-06T08:12:21;22.03;;;19.80;;
3911;SDS011;1971;51.778;10.330;2024-03-06T08:14:54;22.90;;;20.50;;
3911;SDS011;1971;51.778;10.330;2024-03-06T08:17:24;21.43;;;19.37;;
3911;SDS011;1971;51.778;10.330;2024-03-06T08:19:54;22.37;;;20.27;;
3911;SDS011;1971;51.778;10.330;2024-03-06T08:22:24;22.50;;;20.33;;
3911;SDS011;1971;51.778;10.330;2024-03-06T08:24:55;20.70;;;18.60;;
3911;SDS011;1971;51.778;10.330;2024-03-06T08:27:25;22.00;;;19.80;;
3911;SDS011;1971;51.778;10.330;2024-03-06T08:29:58;21.00;;;19.10;;
3911;SDS011;1971;51.778;10.330;2024-03-06T08:32:30;20.23;;;18.23;;
3911;SDS011;1971;51.778;10.330;2024-03-06T08:35:02;20.27;;;18.20;;
3911;SDS011;1971;51.778;10.330;2024-03-06T08:37:32;21.03;;;19.03;;
3911;SDS011;1971;51.778;10.330;2024-03-06T08:40:03;21.30;;;19.10;;
3911;SDS011;1971;51.778;10.330;2024-03-06T08:42:36;21.67;;;17.30;;
3911;SDS011;1971;51.778;10.330;2024-03-06T08:45:09;19.73;;;17.93;;
3911;SDS011;1971;51.778;10.330;2024-03-06T08:47:40;19.33;;;17.40;;
3911;SDS011;1971;51.778;10.330;2024-03-06T08:50:11;18.27;;;16.57;;
3911;SDS011;1971;51.778;10.330;2024-03-06T08:52:42;19.70;;;17.80;;
3911;SDS011;1971;51.778;10.330;2024-03-06T08:55:12;20.43;;;17.60;;
3911;SDS011;1971;51.778;10.330;2024-03-06T08:57:43;20.20;;;18.40;;
3911;SDS011;1971;51.778;10.330;2024-03-06T09:00:16;19.87;;;17.97;;
3911;SDS011;1971;51.778;10.330;2024-03-06T09:02:47;19.60;;;17.13;;
3911;SDS011;1971;51.778;10.330;2024-03-06T09:05:17;25.60;;;22.10;;
3911;SDS011;1971;51.778;10.330;2024-03-06T09:07:48;19.67;;;17.57;;
3911;SDS011;1971;51.778;10.330;2024-03-06T09:10:18;19.93;;;17.90;;
3911;SDS011;1971;51.778;10.330;2024-03-06T09:12:49;20.77;;;18.57;;
3911;SDS011;1971;51.778;10.330;2024-03-06T09:15:21;19.20;;;17.40;;
3911;SDS011;1971;51.778;10.330;2024-03-06T09:17:52;20.63;;;18.50;;
3911;SDS011;1971;51.778;10.330;2024-03-06T09:20:22;19.60;;;17.70;;
3911;SDS011;1971;51.778;10.330;2024-03-06T09:22:52;22.17;;;20.00;;
3911;SDS011;1971;51.778;10.330;2024-03-06T09:25:24;21.13;;;19.00;;
3911;SDS011;1971;51.778;10.330;2024-03-06T09:27:56;21.37;;;19.17;;
3911;SDS011;1971;51.778;10.330;2024-03-06T09:30:29;21.47;;;19.17;;
3911;SDS011;1971;51.778;10.330;2024-03-06T09:32:59;21.80;;;19.13;;
3911;SDS011;1971;51.778;10.330;2024-03-06T09:35:29;19.83;;;17.83;;
3911;SDS011;1971;51.778;10.330;2024-03-06T09:37:59;19.43;;;17.43;;
3911;SDS011;1971;51.778;10.330;2024-03-06T09:40:30;19.73;;;17.73;;
3911;SDS011;1971;51.778;10.330;2024-03-06T09:43:00;19.07;;;17.37;;
3911;SDS011;1971;51.778;10.330;2024-03-06T09:45:33;19.37;;;17.47;;
3911;SDS011;1971;51.778;10.330;2024-03-06T09:48:04;21.30;;;19.20;;
3911;SDS011;1971;51.778;10.330;2024-03-06T09:50:37;20.63;;;18.63;;
3911;SDS011;1971;51.778;10.330;2024-03-06T09:53:13;19.60;;;17.80;;
3911;SDS011;1971;51.778;10.330;2024-03-06T09:55:45;18.93;;;17.03;;
3911;SDS011;1971;51.778;10.330;2024-03-06T09:58:16;19.73;;;17.73;;
3911;SDS011;1971;51.778;10.330;2024-03-06T10:00:48;18.90;;;17.00;;
3911;SDS011;1971;51.778;10.330;2024-03-06T10:03:19;21.27;;;18.27;;
3911;SDS011;1971;51.778;10.330;2024-03-06T10:05:50;20.77;;;18.83;;
3911;SDS011;1971;51.778;10.330;2024-03-06T10:08:22;21.27;;;19.10;;
3911;SDS011;1971;51.778;10.330;2024-03-06T10:10:53;18.90;;;17.07;;
3911;SDS011;1971;51.778;10.330;2024-03-06T10:13:23;18.53;;;16.83;;
3911;SDS011;1971;51.778;10.330;2024-03-06T10:16:00;18.23;;;16.50;;
3911;SDS011;1971;51.778;10.330;2024-03-06T10:18:35;17.63;;;16.10;;
3911;SDS011;1971;51.778;10.330;2024-03-06T10:21:06;17.87;;;16.00;;
3911;SDS011;1971;51.778;10.330;2024-03-06T10:23:36;17.13;;;15.57;;
3911;SDS011;1971;51.778;10.330;2024-03-06T10:26:07;17.87;;;16.00;;
3911;SDS011;1971;51.778;10.330;2024-03-06T10:28:44;18.03;;;16.43;;
3911;SDS011;1971;51.778;10.330;2024-03-06T10:31:26;16.80;;;15.30;;
3911;SDS011;1971;51.778;10.330;2024-03-06T10:33:56;19.90;;;18.10;;
3911;SDS011;1971;51.778;10.330;2024-03-06T10:36:26;17.87;;;14.77;;
3911;SDS011;1971;51.778;10.330;2024-03-06T10:38:56;16.70;;;14.57;;
3911;SDS011;1971;51.778;10.330;2024-03-06T10:41:31;16.40;;;14.77;;
3911;SDS011;1971;51.778;10.330;2024-03-06T10:44:06;16.87;;;15.30;;
3911;SDS011;1971;51.778;10.330;2024-03-06T10:46:45;20.17;;;15.87;;
3911;SDS011;1971;51.778;10.330;2024-03-06T10:49:16;17.83;;;15.93;;
3911;SDS011;1971;51.778;10.330;2024-03-06T10:51:48;17.10;;;15.40;;
3911;SDS011;1971;51.778;10.330;2024-03-06T10:54:21;17.83;;;16.23;;
3911;SDS011;1971;51.778;10.330;2024-03-06T10:56:51;17.90;;;16.10;;
3911;SDS011;1971;51.778;10.330;2024-03-06T10:59:23;20.20;;;18.40;;
3911;SDS011;1971;51.778;10.330;2024-03-06T11:01:59;21.00;;;19.20;;
3911;SDS011;1971;51.778;10.330;2024-03-06T11:04:30;21.10;;;19.17;;
3911;SDS011;1971;51.778;10.330;2024-03-06T11:07:02;20.30;;;18.30;;
3911;SDS011;1971;51.778;10.330;2024-03-06T11:09:35;31.30;;;19.20;;
3911;SDS011;1971;51.778;10.330;2024-03-06T11:12:06;21.20;;;19.20;;
3911;SDS011;1971;51.778;10.330;2024-03-06T11:14:37;19.80;;;17.70;;
3911;SDS011;1971;51.778;10.330;2024-03-06T11:17:11;20.67;;;18.67;;
3911;SDS011;1971;51.778;10.330;2024-03-06T11:28:30;20.80;;;18.67;;
3911;SDS011;1971;51.778;10.330;2024-03-06T11:31:02;20.37;;;18.27;;
3911;SDS011;1971;51.778;10.330;2024-03-06T11:33:41;19.00;;;17.20;;
3911;SDS011;1971;51.778;10.330;2024-03-06T11:36:17;19.53;;;17.83;;
3911;SDS011;1971;51.778;10.330;2024-03-06T11:38:51;19.10;;;17.20;;
3911;SDS011;1971;51.778;10.330;2024-03-06T11:41:23;20.40;;;18.50;;
3911;SDS011;1971;51.778;10.330;2024-03-06T11:43:54;20.73;;;18.80;;
3911;SDS011;1971;51.778;10.330;2024-03-06T11:46:40;18.03;;;16.20;;
3911;SDS011;1971;51.778;10.330;2024-03-06T11:49:17;18.40;;;16.50;;
3911;SDS011;1971;51.778;10.330;2024-03-06T11:51:49;19.07;;;17.13;;
3911;SDS011;1971;51.778;10.330;2024-03-06T11:54:20;21.17;;;17.93;;
3911;SDS011;1971;51.778;10.330;2024-03-06T11:56:54;18.00;;;16.30;;
3911;SDS011;1971;51.778;10.330;2024-03-06T11:59:26;19.47;;;17.53;;
3911;SDS011;1971;51.778;10.330;2024-03-06T12:01:58;18.20;;;16.27;;
3911;SDS011;1971;51.778;10.330;2024-03-06T12:04:33;17.30;;;15.70;;
3911;SDS011;1971;51.778;10.330;2024-03-06T12:07:06;17.20;;;15.60;;
3911;SDS011;1971;51.778;10.330;2024-03-06T12:09:37;18.50;;;16.60;;
3911;SDS011;1971;51.778;10.330;2024-03-06T12:12:09;18.10;;;16.20;;
3911;SDS011;1971;51.778;10.330;2024-03-06T12:14:40;16.67;;;15.03;;
3911;SDS011;1971;51.778;10.330;2024-03-06T12:17:11;18.03;;;16.20;;
3911;SDS011;1971;51.778;10.330;2024-03-06T12:19:47;18.57;;;14.70;;
3911;SDS011;1971;51.778;10.330;2024-03-06T12:22:19;16.43;;;14.73;;
3911;SDS011;1971;51.778;10.330;2024-03-06T12:24:58;16.23;;;14.63;;
3911;SDS011;1971;51.778;10.330;2024-03-06T12:27:31;16.03;;;14.57;;
3911;SDS011;1971;51.778;10.330;2024-03-06T12:30:08;14.90;;;13.60;;
3911;SDS011;1971;51.778;10.330;2024-03-06T12:32:40;15.23;;;13.80;;
3911;SDS011;1971;51.778;10.330;2024-03-06T12:35:12;15.80;;;14.30;;
3911;SDS011;1971;51.778;10.330;2024-03-06T12:37:52;14.47;;;13.03;;
3911;SDS011;1971;51.778;10.330;2024-03-06T12:40:23;17.23;;;14.87;;
3911;SDS011;1971;51.778;10.330;2024-03-06T12:42:55;15.70;;;14.30;;
3911;SDS011;1971;51.778;10.330;2024-03-06T12:45:25;16.47;;;14.97;;
3911;SDS011;1971;51.778;10.330;2024-03-06T12:47:55;16.10;;;14.33;;
3911;SDS011;1971;51.778;10.330;2024-03-06T12:50:28;14.47;;;13.17;;
3911;SDS011;1971;51.778;10.330;2024-03-06T12:52:58;16.13;;;14.47;;
3911;SDS011;1971;51.778;10.330;2024-03-06T12:55:31;15.67;;;14.07;;
3911;SDS011;1971;51.778;10.330;2024-03-06T12:58:02;15.60;;;14.10;;
3911;SDS011;1971;51.778;10.330;2024-03-06T13:00:32;12.97;;;11.67;;
3911;SDS011;1971;51.778;10.330;2024-03-06T13:03:02;17.50;;;15.67;;
3911;SDS011;1971;51.778;10.330;2024-03-06T13:05:35;18.03;;;16.43;;
3911;SDS011;1971;51.778;10.330;2024-03-06T13:08:05;12.87;;;11.67;;
3911;SDS011;1971;51.778;10.330;2024-03-06T13:10:35;20.20;;;15.93;;
3911;SDS011;1971;51.778;10.330;2024-03-06T13:13:06;19.50;;;17.70;;
3911;SDS011;1971;51.778;10.330;2024-03-06T13:15:36;19.00;;;17.00;;
3911;SDS011;1971;51.778;10.330;2024-03-06T13:18:06;19.93;;;18.10;;
3911;SDS011;1971;51.778;10.330;2024-03-06T13:20:39;21.17;;;19.13;;
3911;SDS011;1971;51.778;10.330;2024-03-06T13:23:09;22.90;;;20.60;;
3911;SDS011;1971;51.778;10.330;2024-03-06T13:25:39;19.63;;;17.73;;
3911;SDS011;1971;51.778;10.330;2024-03-06T13:28:12;20.53;;;18.53;;
3911;SDS011;1971;51.778;10.330;2024-03-06T13:30:42;19.17;;;17.33;;
3911;SDS011;1971;51.778;10.330;2024-03-06T13:33:12;20.60;;;18.70;;
3911;SDS011;1971;51.778;10.330;2024-03-06T13:35:45;22.60;;;20.53;;
3911;SDS011;1971;51.778;10.330;2024-03-06T13:38:15;22.13;;;19.87;;
3911;SDS011;1971;51.778;10.330;2024-03-06T13:40:48;21.50;;;19.50;;
3911;SDS011;1971;51.778;10.330;2024-03-06T13:43:18;19.50;;;17.70;;
3911;SDS011;1971;51.778;10.330;2024-03-06T13:45:50;20.57;;;18.67;;
3911;SDS011;1971;51.778;10.330;2024-03-06T13:48:21;19.77;;;17.67;;
3911;SDS011;1971;51.778;10.330;2024-03-06T13:50:54;18.90;;;17.13;;
3911;SDS011;1971;51.778;10.330;2024-03-06T13:53:25;18.30;;;16.43;;
3911;SDS011;1971;51.778;10.330;2024-03-06T13:55:55;17.27;;;15.57;;
3911;SDS011;1971;51.778;10.330;2024-03-06T13:58:25;18.83;;;16.97;;
3911;SDS011;1971;51.778;10.330;2024-03-06T14:00:55;17.17;;;15.57;;
3911;SDS011;1971;51.778;10.330;2024-03-06T14:03:26;16.47;;;14.77;;
3911;SDS011;1971;51.778;10.330;2024-03-06T14:05:59;16.70;;;15.07;;
3911;SDS011;1971;51.778;10.330;2024-03-06T14:08:29;15.73;;;13.87;;
3911;SDS011;1971;51.778;10.330;2024-03-06T14:10:59;16.97;;;15.13;;
3911;SDS011;1971;51.778;10.330;2024-03-06T14:13:32;15.03;;;13.63;;
3911;SDS011;1971;51.778;10.330;2024-03-06T14:16:04;15.80;;;14.30;;
3911;SDS011;1971;51.778;10.330;2024-03-06T14:18:34;16.10;;;14.60;;
3911;SDS011;1971;51.778;10.330;2024-03-06T14:21:07;15.33;;;13.53;;
3911;SDS011;1971;51.778;10.330;2024-03-06T14:23:37;17.20;;;13.30;;
3911;SDS011;1971;51.778;10.330;2024-03-06T14:26:07;14.17;;;12.87;;
3911;SDS011;1971;51.778;10.330;2024-03-06T14:28:38;15.77;;;14.17;;
3911;SDS011;1971;51.778;10.330;2024-03-06T14:31:08;14.40;;;13.00;;
3911;SDS011;1971;51.778;10.330;2024-03-06T14:33:39;14.67;;;13.30;;
3911;SDS011;1971;51.778;10.330;2024-03-06T14:36:13;14.50;;;13.17;;
3911;SDS011;1971;51.778;10.330;2024-03-06T14:38:43;16.07;;;14.30;;
3911;SDS011;1971;51.778;10.330;2024-03-06T14:41:13;18.80;;;13.53;;
3911;SDS011;1971;51.778;10.330;2024-03-06T14:43:45;14.00;;;12.60;;
3911;SDS011;1971;51.778;10.330;2024-03-06T14:46:15;13.63;;;12.47;;
3911;SDS011;1971;51.778;10.330;2024-03-06T14:48:45;14.20;;;12.77;;
3911;SDS011;1971;51.778;10.330;2024-03-06T14:51:18;14.70;;;13.30;;
3911;SDS011;1971;51.778;10.330;2024-03-06T14:53:48;17.50;;;15.80;;
3911;SDS011;1971;51.778;10.330;2024-03-06T14:56:18;16.80;;;15.00;;
3911;SDS011;1971;51.778;10.330;2024-03-06T14:58:49;16.77;;;15.00;;
3911;SDS011;1971;51.778;10.330;2024-03-06T15:01:19;15.00;;;13.50;;
3911;SDS011;1971;51.778;10.330;2024-03-06T15:03:51;15.00;;;13.70;;
3911;SDS011;1971;51.778;10.330;2024-03-06T15:06:24;14.60;;;13.30;;
3911;SDS011;1971;51.778;10.330;2024-03-06T15:08:54;16.50;;;15.00;;
3911;SDS011;1971;51.778;10.330;2024-03-06T15:11:24;17.60;;;15.90;;
3911;SDS011;1971;51.778;10.330;2024-03-06T15:13:59;17.40;;;15.30;;